createdAt,value
2022-07-25T00:01:34.860Z,99195.20
2022-07-25T00:04:14.485Z,99197.20
2022-07-25T00:06:51.508Z,99199.60
2022-07-25T00:09:27.851Z,99199.80
2022-07-25T00:12:04.763Z,99198.60
2022-07-25T00:14:42.331Z,99195.40
2022-07-25T00:17:18.693Z,99195.60
2022-07-25T00:19:55.297Z,99196.40
2022-07-25T00:22:31.609Z,99193.60
2022-07-25T00:25:09.805Z,99193.80
2022-07-25T00:27:46.319Z,99185.80
2022-07-25T00:30:22.941Z,99187.20
2022-07-25T00:32:59.984Z,99186.20
2022-07-25T00:35:36.255Z,99183.00
2022-07-25T00:38:12.748Z,99178.80
2022-07-25T00:40:54.242Z,99178.40
2022-07-25T00:43:31.900Z,99180.60
2022-07-25T00:46:08.742Z,99180.00
2022-07-25T00:48:45.903Z,99178.40
2022-07-25T00:51:22.882Z,99178.60
2022-07-25T00:54:00.726Z,99175.20
2022-07-25T00:56:37.642Z,99176.80
2022-07-25T00:59:14.114Z,99177.20
2022-07-25T01:01:50.599Z,99177.80
2022-07-25T01:04:27.645Z,99179.80
2022-07-25T01:07:05.001Z,99178.00
2022-07-25T01:09:41.824Z,99169.40
2022-07-25T01:12:18.355Z,99166.20
2022-07-25T01:14:54.908Z,99166.20
2022-07-25T01:17:31.630Z,99160.60
2022-07-25T01:20:14.563Z,99159.40
2022-07-25T01:22:51.809Z,99156.80
2022-07-25T01:25:29.544Z,99156.80
2022-07-25T01:28:06.675Z,99155.60
2022-07-25T01:30:43.585Z,99156.00
2022-07-25T01:33:24.337Z,99157.80
2022-07-25T01:36:00.844Z,99156.00
2022-07-25T01:38:37.515Z,99153.00
2022-07-25T01:41:14.129Z,99152.20
2022-07-25T01:43:58.920Z,99158.20
2022-07-25T01:46:35.428Z,99155.40
2022-07-25T01:49:12.213Z,99153.40
2022-07-25T01:51:48.677Z,99152.00
2022-07-25T01:54:25.289Z,99152.40
2022-07-25T01:57:01.804Z,99152.20
2022-07-25T01:59:41.634Z,99153.00
2022-07-25T02:02:18.007Z,99153.80
2022-07-25T02:04:54.496Z,99153.20
2022-07-25T02:07:30.879Z,99148.40
2022-07-25T02:10:09.480Z,99145.60
2022-07-25T02:12:45.740Z,99143.80
2022-07-25T02:15:22.168Z,99141.00
2022-07-25T02:17:58.875Z,99142.20
2022-07-25T02:20:35.933Z,99141.40
2022-07-25T02:23:12.488Z,99137.40
2022-07-25T02:25:48.853Z,99141.00
2022-07-25T02:28:25.322Z,99141.80
2022-07-25T02:31:02.475Z,99140.80
2022-07-25T02:33:39.723Z,99144.40
2022-07-25T02:36:16.726Z,99144.60
2022-07-25T02:38:53.156Z,99147.00
2022-07-25T02:41:29.557Z,99145.00
2022-07-25T02:44:06.858Z,99142.80
2022-07-25T02:46:43.553Z,99141.00
2022-07-25T02:49:21.336Z,99137.40
2022-07-25T02:51:58.728Z,99136.40
2022-07-25T02:54:35.282Z,99138.40
2022-07-25T02:57:11.604Z,99134.20
2022-07-25T02:59:47.950Z,99138.80
2022-07-25T03:02:24.618Z,99133.60
2022-07-25T03:05:01.099Z,99134.40
2022-07-25T03:07:37.655Z,99136.60
2022-07-25T03:10:16.999Z,99136.80
2022-07-25T03:12:53.372Z,99130.40
2022-07-25T03:15:29.739Z,99133.80
2022-07-25T03:18:06.191Z,99133.60
2022-07-25T03:20:42.676Z,99141.60
2022-07-25T03:23:19.344Z,99146.60
2022-07-25T03:25:55.849Z,99149.20
2022-07-25T03:28:32.372Z,99147.80
2022-07-25T03:31:09.153Z,99157.60
2022-07-25T03:33:46.182Z,99156.80
2022-07-25T03:36:22.656Z,99162.60
2022-07-25T03:38:58.848Z,99160.80
2022-07-25T03:41:36.140Z,99158.40
2022-07-25T03:44:12.648Z,99162.20
2022-07-25T03:46:49.076Z,99157.80
2022-07-25T03:49:25.927Z,99155.40
2022-07-25T03:52:02.341Z,99155.00
2022-07-25T03:54:38.690Z,99159.60
2022-07-25T03:57:14.967Z,99157.60
2022-07-25T03:59:51.343Z,99161.00
2022-07-25T04:02:27.878Z,99164.00
2022-07-25T04:05:04.341Z,99162.40
2022-07-25T04:07:41.043Z,99163.00
2022-07-25T04:10:18.227Z,99163.00
2022-07-25T04:12:54.826Z,99157.00
2022-07-25T04:15:31.477Z,99151.20
2022-07-25T04:18:07.847Z,99150.80
2022-07-25T04:20:48.794Z,99154.20
2022-07-25T04:23:25.362Z,99152.60
2022-07-25T04:26:02.012Z,99150.20
2022-07-25T04:28:38.313Z,99156.00
2022-07-25T04:31:15.059Z,99150.40
2022-07-25T04:33:51.664Z,99150.80
2022-07-25T04:36:28.318Z,99153.60
2022-07-25T04:39:04.664Z,99149.40
2022-07-25T04:41:41.060Z,99148.00
2022-07-25T04:44:17.525Z,99141.60
2022-07-25T04:46:54.441Z,99143.80
2022-07-25T04:49:31.114Z,99140.80
2022-07-25T04:52:08.134Z,99140.80
2022-07-25T04:54:44.581Z,99143.20
2022-07-25T04:57:21.119Z,99143.80
2022-07-25T04:59:58.916Z,99146.60
2022-07-25T05:02:35.458Z,99143.60
2022-07-25T05:05:21.203Z,99141.40
2022-07-25T05:08:03.097Z,99143.20
2022-07-25T05:10:39.711Z,99139.00
2022-07-25T05:13:16.541Z,99138.80
2022-07-25T05:15:53.316Z,99140.60
2022-07-25T05:18:29.860Z,99144.80
2022-07-25T05:21:06.593Z,99144.80
2022-07-25T05:23:43.029Z,99138.00
2022-07-25T05:26:19.258Z,99133.60
2022-07-25T05:28:55.740Z,99132.40
2022-07-25T05:31:34.993Z,99138.60
2022-07-25T05:34:15.564Z,99133.20
2022-07-25T05:36:52.249Z,99131.00
2022-07-25T05:39:29.608Z,99133.00
2022-07-25T05:42:06.341Z,99135.20
2022-07-25T05:44:42.758Z,99137.20
2022-07-25T05:47:19.133Z,99136.20
2022-07-25T05:49:56.351Z,99138.20
2022-07-25T05:52:32.692Z,99142.40
2022-07-25T05:55:10.279Z,99138.40
2022-07-25T05:57:46.694Z,99140.80
2022-07-25T06:00:23.895Z,99135.60
2022-07-25T06:03:02.592Z,99137.00
2022-07-25T06:05:39.156Z,99138.60
2022-07-25T06:08:16.324Z,99137.20
2022-07-25T06:10:52.848Z,99138.40
2022-07-25T06:13:29.499Z,99140.60
2022-07-25T06:16:06.870Z,99144.20
2022-07-25T06:18:43.464Z,99146.20
2022-07-25T06:21:20.140Z,99148.20
2022-07-25T06:23:56.455Z,99145.40
2022-07-25T06:26:33.140Z,99138.20
2022-07-25T06:29:10.022Z,99137.80
2022-07-25T06:31:47.445Z,99136.20
2022-07-25T06:34:28.529Z,99138.40
2022-07-25T06:37:05.671Z,99132.60
2022-07-25T06:39:45.695Z,99131.00
2022-07-25T06:42:21.363Z,99130.20
2022-07-25T06:44:59.115Z,99126.60
2022-07-25T06:47:36.166Z,99127.40
2022-07-25T06:50:16.524Z,99118.80
2022-07-25T06:52:54.566Z,99117.20
2022-07-25T06:55:31.192Z,99111.20
2022-07-25T06:58:08.063Z,99115.80
2022-07-25T07:00:44.766Z,99109.60
2022-07-25T07:03:21.180Z,99103.60
2022-07-25T07:05:57.861Z,99101.40
2022-07-25T07:08:34.269Z,99099.20
2022-07-25T07:11:11.173Z,99093.00
2022-07-25T07:13:47.854Z,99094.40
2022-07-25T07:16:24.321Z,99087.40
2022-07-25T07:19:01.202Z,99092.00
2022-07-25T07:21:37.766Z,99085.20
2022-07-25T07:24:22.109Z,99081.00
2022-07-25T07:27:01.188Z,99079.60
2022-07-25T07:29:37.426Z,99083.00
2022-07-25T07:32:14.615Z,99087.40
2022-07-25T07:34:51.154Z,99085.60
2022-07-25T07:37:35.794Z,99080.40
2022-07-25T07:40:18.244Z,99081.80
2022-07-25T07:42:57.084Z,99084.40
2022-07-25T07:45:33.971Z,99083.40
2022-07-25T07:48:11.347Z,99084.20
2022-07-25T07:50:47.909Z,99080.20
2022-07-25T07:53:44.466Z,99081.00
2022-07-25T07:56:23.831Z,99082.40
2022-07-25T07:59:00.437Z,99084.00
2022-07-25T08:01:37.254Z,99079.20
2022-07-25T08:04:14.139Z,99077.60
2022-07-25T08:06:50.547Z,99086.00
2022-07-25T08:09:27.039Z,99080.00
2022-07-25T08:12:03.417Z,99082.00
2022-07-25T08:14:40.088Z,99079.40
2022-07-25T08:17:16.432Z,99077.80
2022-07-25T08:19:55.087Z,99072.80
2022-07-25T08:22:41.393Z,99073.20
2022-07-25T08:25:22.232Z,99069.80
2022-07-25T08:27:59.064Z,99070.20
2022-07-25T08:30:36.672Z,99073.40
2022-07-25T08:33:16.580Z,99073.40
2022-07-25T08:35:55.777Z,99073.00
2022-07-25T08:38:32.914Z,99077.80
2022-07-25T08:41:09.841Z,99075.40
2022-07-25T08:43:49.010Z,99064.20
2022-07-25T08:46:28.824Z,99059.60
2022-07-25T08:49:05.284Z,99062.20
2022-07-25T08:51:42.780Z,99062.20
2022-07-25T08:54:19.787Z,99057.20
2022-07-25T08:56:59.208Z,99055.00
2022-07-25T08:59:37.179Z,99048.00
2022-07-25T09:02:18.038Z,99051.80
2022-07-25T09:04:52.830Z,99051.20
2022-07-25T09:07:43.357Z,99051.80
2022-07-25T09:10:23.704Z,99044.80
2022-07-25T09:13:03.203Z,99046.60
2022-07-25T09:15:43.001Z,99041.00
2022-07-25T09:18:24.395Z,99040.20
2022-07-25T09:21:02.034Z,99036.20
2022-07-25T09:23:41.204Z,99034.60
2022-07-25T09:26:18.888Z,99030.80
2022-07-25T09:29:01.044Z,99033.80
2022-07-25T09:31:41.981Z,99031.40
2022-07-25T09:34:31.248Z,99024.20
2022-07-25T09:37:10.031Z,99017.60
2022-07-25T09:39:51.837Z,99019.00
2022-07-25T09:42:32.601Z,99023.20
2022-07-25T09:45:13.781Z,99024.00
2022-07-25T09:48:03.573Z,99023.60
2022-07-25T09:50:40.028Z,99016.60
2022-07-25T09:53:17.101Z,99007.00
2022-07-25T09:55:55.236Z,99007.80
2022-07-25T09:58:32.695Z,99009.40
2022-07-25T10:01:14.498Z,99005.40
2022-07-25T10:04:05.944Z,99005.20
2022-07-25T10:06:54.133Z,98997.40
2022-07-25T10:09:31.142Z,98998.80
2022-07-25T10:12:14.068Z,98996.60
2022-07-25T10:15:10.092Z,98995.80
2022-07-25T10:17:48.756Z,98990.20
2022-07-25T10:20:33.449Z,98987.20
2022-07-25T10:23:23.384Z,98986.60
2022-07-25T10:26:16.366Z,98981.00
2022-07-25T10:28:57.204Z,98983.00
2022-07-25T10:31:50.368Z,98980.40
2022-07-25T10:34:35.887Z,98984.20
2022-07-25T10:37:21.365Z,98976.80
2022-07-25T10:39:57.875Z,98975.60
2022-07-25T10:42:39.061Z,98970.00
2022-07-25T10:45:21.869Z,98964.00
2022-07-25T10:48:07.676Z,98961.40
2022-07-25T10:51:02.124Z,98956.40
2022-07-25T10:53:45.679Z,98957.40
2022-07-25T10:56:25.298Z,98951.20
2022-07-25T10:59:04.282Z,98952.80
2022-07-25T11:01:41.518Z,98948.00
2022-07-25T11:04:21.436Z,98946.20
2022-07-25T11:06:57.969Z,98945.60
2022-07-25T11:09:34.450Z,98940.60
2022-07-25T11:12:15.643Z,98938.00
2022-07-25T11:14:52.642Z,98932.00
2022-07-25T11:17:30.309Z,98931.80
2022-07-25T11:20:13.686Z,98928.40
2022-07-25T11:22:57.230Z,98926.20
2022-07-25T11:25:34.466Z,98916.00
2022-07-25T11:28:15.373Z,98914.80
2022-07-25T11:30:50.804Z,98916.00
2022-07-25T11:33:27.690Z,98911.80
2022-07-25T11:36:05.404Z,98905.40
2022-07-25T11:38:43.847Z,98898.00
2022-07-25T11:41:31.186Z,98896.20
2022-07-25T11:44:08.099Z,98888.20
2022-07-25T11:46:49.530Z,98890.40
2022-07-25T11:49:26.379Z,98889.00
2022-07-25T11:52:03.622Z,98889.00
2022-07-25T11:54:50.792Z,98886.40
2022-07-25T11:57:33.542Z,98882.20
2022-07-25T12:00:20.075Z,98880.40
2022-07-25T12:03:07.377Z,98876.20
2022-07-25T12:05:44.850Z,98868.60
2022-07-25T12:08:25.115Z,98864.20
2022-07-25T12:11:02.062Z,98861.20
2022-07-25T12:13:38.409Z,98857.40
2022-07-25T12:16:15.930Z,98854.80
2022-07-25T12:18:52.375Z,98850.60
2022-07-25T12:21:30.108Z,98849.20
2022-07-25T12:24:07.607Z,98845.40
2022-07-25T12:26:44.192Z,98840.60
2022-07-25T12:29:20.777Z,98839.20
2022-07-25T12:31:57.427Z,98838.40
2022-07-25T12:34:33.822Z,98838.60
2022-07-25T12:37:10.638Z,98829.40
2022-07-25T12:39:47.304Z,98828.80
2022-07-25T12:42:24.210Z,98821.80
2022-07-25T12:45:00.638Z,98820.60
2022-07-25T12:47:37.414Z,98816.20
2022-07-25T12:50:15.629Z,98812.20
2022-07-25T12:52:52.289Z,98809.80
2022-07-25T12:55:28.791Z,98805.20
2022-07-25T12:58:05.624Z,98806.40
2022-07-25T13:00:42.465Z,98810.00
2022-07-25T13:03:20.401Z,98804.40
2022-07-25T13:05:57.126Z,98798.20
2022-07-25T13:08:36.189Z,98796.40
2022-07-25T13:11:12.937Z,98796.00
2022-07-25T13:13:49.451Z,98791.80
2022-07-25T13:16:26.502Z,98794.80
2022-07-25T13:19:03.013Z,98793.60
2022-07-25T13:21:39.487Z,98787.60
2022-07-25T13:24:16.296Z,98777.40
2022-07-25T13:26:52.853Z,98772.80
2022-07-25T13:29:29.275Z,98771.00
2022-07-25T13:32:07.300Z,98772.40
2022-07-25T13:34:44.186Z,98766.20
2022-07-25T13:37:21.103Z,98758.60
2022-07-25T13:39:57.660Z,98758.20
2022-07-25T13:42:34.230Z,98759.80
2022-07-25T13:45:13.119Z,98757.20
2022-07-25T13:48:06.044Z,98749.20
2022-07-25T13:50:46.299Z,98745.00
2022-07-25T13:53:28.009Z,98735.20
2022-07-25T13:56:07.627Z,98736.20
2022-07-25T13:58:44.587Z,98734.40
2022-07-25T14:01:27.535Z,98735.20
2022-07-25T14:04:04.430Z,98734.80
2022-07-25T14:06:41.135Z,98730.20
2022-07-25T14:09:17.600Z,98727.20
2022-07-25T14:11:54.444Z,98726.80
2022-07-25T14:14:30.868Z,98724.20
2022-07-25T14:17:07.531Z,98721.20
2022-07-25T14:19:44.197Z,98716.20
2022-07-25T14:22:20.914Z,98715.60
2022-07-25T14:24:57.407Z,98711.00
2022-07-25T14:27:34.476Z,98711.60
2022-07-25T14:30:15.118Z,98708.80
2022-07-25T14:32:52.019Z,98703.00
2022-07-25T14:35:32.257Z,98699.20
2022-07-25T14:38:09.759Z,98703.80
2022-07-25T14:40:46.158Z,98702.80
2022-07-25T14:43:22.740Z,98695.40
2022-07-25T14:45:59.503Z,98687.20
2022-07-25T14:48:36.366Z,98685.40
2022-07-25T14:51:13.555Z,98680.00
2022-07-25T14:53:53.233Z,98677.40
2022-07-25T14:56:30.679Z,98672.60
2022-07-25T14:59:09.940Z,98670.00
2022-07-25T15:01:46.908Z,98666.80
2022-07-25T15:04:25.315Z,98666.20
2022-07-25T15:07:01.792Z,98660.20
2022-07-25T15:09:38.339Z,98658.00
2022-07-25T15:12:16.738Z,98655.00
2022-07-25T15:14:53.935Z,98648.80
2022-07-25T15:17:30.429Z,98649.20
2022-07-25T15:20:08.906Z,98649.20
2022-07-25T15:22:45.744Z,98643.60
2022-07-25T15:28:20.473Z,98641.40
2022-07-25T15:30:56.988Z,98639.20
2022-07-25T15:33:33.562Z,98641.00
2022-07-25T15:36:11.828Z,98641.00
2022-07-25T15:38:50.900Z,98638.80
2022-07-25T15:41:27.842Z,98633.00
2022-07-25T15:44:04.911Z,98627.40
2022-07-25T15:46:43.186Z,98625.40
2022-07-25T15:49:21.969Z,98623.60
2022-07-25T15:51:58.515Z,98620.40
2022-07-25T15:54:36.111Z,98616.00
2022-07-25T15:57:13.429Z,98611.60
2022-07-25T15:59:49.879Z,98609.00
2022-07-25T16:02:27.014Z,98603.20
2022-07-25T16:05:03.807Z,98601.80
2022-07-25T16:07:40.361Z,98604.00
2022-07-25T16:10:17.635Z,98602.40
2022-07-25T16:12:53.973Z,98601.00
2022-07-25T16:15:30.685Z,98598.00
2022-07-25T16:18:07.379Z,98598.40
2022-07-25T16:20:44.048Z,98593.00
2022-07-25T16:23:20.390Z,98597.40
2022-07-25T16:25:56.963Z,98590.20
2022-07-25T16:28:34.901Z,98596.80
2022-07-25T16:31:12.173Z,98589.80
2022-07-25T16:33:48.774Z,98588.40
2022-07-25T16:36:25.925Z,98586.20
2022-07-25T16:39:03.237Z,98589.80
2022-07-25T16:41:39.738Z,98589.80
2022-07-25T16:44:16.642Z,98582.40
2022-07-25T16:46:53.343Z,98584.60
2022-07-25T16:49:31.695Z,98586.20
2022-07-25T16:52:09.018Z,98588.00
2022-07-25T16:54:45.585Z,98584.40
2022-07-25T16:57:23.818Z,98584.00
2022-07-25T17:00:01.979Z,98578.80
2022-07-25T17:02:39.831Z,98581.60
2022-07-25T17:05:17.125Z,98582.20
2022-07-25T17:07:59.512Z,98579.40
2022-07-25T17:10:36.344Z,98579.00
2022-07-25T17:13:12.842Z,98580.60
2022-07-25T17:15:49.628Z,98576.00
2022-07-25T17:18:26.283Z,98578.80
2022-07-25T17:21:02.653Z,98573.20
2022-07-25T17:23:39.326Z,98569.20
2022-07-25T17:26:16.031Z,98569.20
2022-07-25T17:28:53.709Z,98566.20
2022-07-25T17:31:30.640Z,98563.00
2022-07-25T17:34:07.137Z,98562.60
2022-07-25T17:36:43.893Z,98565.60
2022-07-25T17:39:20.360Z,98562.20
2022-07-25T17:41:57.869Z,98562.60
2022-07-25T17:44:34.361Z,98558.40
2022-07-25T17:47:10.954Z,98557.20
2022-07-25T17:49:47.372Z,98554.00
2022-07-25T17:52:23.840Z,98555.00
2022-07-25T17:55:00.303Z,98554.00
2022-07-25T17:57:37.506Z,98550.40
2022-07-25T18:00:17.374Z,98546.80
2022-07-25T18:02:55.007Z,98546.40
2022-07-25T18:05:31.919Z,98540.40
2022-07-25T18:08:08.688Z,98532.80
2022-07-25T18:10:45.303Z,98532.00
2022-07-25T18:13:22.583Z,98534.00
2022-07-25T18:15:59.337Z,98536.40
2022-07-25T18:18:36.114Z,98535.40
2022-07-25T18:21:15.124Z,98536.00
2022-07-25T18:23:51.579Z,98532.60
2022-07-25T18:26:28.581Z,98526.60
2022-07-25T18:29:06.385Z,98523.60
2022-07-25T18:31:43.046Z,98525.80
2022-07-25T18:34:19.497Z,98524.40
2022-07-25T18:36:56.079Z,98518.00
2022-07-25T18:39:32.774Z,98523.80
2022-07-25T18:42:09.872Z,98523.20
2022-07-25T18:44:46.781Z,98521.40
2022-07-25T18:47:26.482Z,98515.80
2022-07-25T18:50:11.432Z,98515.80
2022-07-25T18:52:47.992Z,98511.40
2022-07-25T18:55:24.689Z,98513.60
2022-07-25T18:58:02.006Z,98511.20
2022-07-25T19:00:38.554Z,98511.00
2022-07-25T19:03:14.817Z,98507.80
2022-07-25T19:05:51.502Z,98509.20
2022-07-25T19:08:28.342Z,98504.60
2022-07-25T19:11:05.951Z,98505.60
2022-07-25T19:13:50.966Z,98508.40
2022-07-25T19:16:28.209Z,98505.20
2022-07-25T19:19:06.282Z,98500.40
2022-07-25T19:21:42.927Z,98502.40
2022-07-25T19:24:19.631Z,98492.20
2022-07-25T19:26:57.310Z,98496.80
2022-07-25T19:29:33.808Z,98495.80
2022-07-25T19:32:11.249Z,98496.40
2022-07-25T19:34:47.807Z,98491.40
2022-07-25T19:37:24.429Z,98490.60
2022-07-25T19:40:00.770Z,98490.40
2022-07-25T19:42:37.785Z,98488.00
2022-07-25T19:45:16.186Z,98486.40
2022-07-25T19:47:53.137Z,98479.60
2022-07-25T19:50:30.177Z,98481.20
2022-07-25T19:53:06.672Z,98481.60
2022-07-25T19:55:44.111Z,98479.20
2022-07-25T19:58:20.857Z,98475.00
2022-07-25T20:00:59.802Z,98476.00
2022-07-25T20:03:36.966Z,98475.40
2022-07-25T20:06:14.352Z,98474.80
2022-07-25T20:08:51.525Z,98470.00
2022-07-25T20:11:28.229Z,98465.00
2022-07-25T20:14:05.223Z,98464.00
2022-07-25T20:16:43.039Z,98461.40
2022-07-25T20:19:19.904Z,98459.40
2022-07-25T20:21:56.340Z,98456.00
2022-07-25T20:24:33.054Z,98454.20
2022-07-25T20:27:09.810Z,98453.20
2022-07-25T20:29:46.364Z,98445.40
2022-07-25T20:32:23.138Z,98449.20
2022-07-25T20:35:00.082Z,98448.20
2022-07-25T20:37:36.637Z,98449.20
2022-07-25T20:40:16.263Z,98453.60
2022-07-25T20:42:52.888Z,98455.80
2022-07-25T20:45:29.874Z,98457.80
2022-07-25T20:48:07.078Z,98456.20
2022-07-25T20:50:44.396Z,98453.80
2022-07-25T20:53:24.087Z,98453.40
2022-07-25T20:56:00.535Z,98449.80
2022-07-25T20:58:36.871Z,98452.80
2022-07-25T21:01:14.060Z,98449.40
2022-07-25T21:03:51.013Z,98455.20
2022-07-25T21:06:27.530Z,98448.40
2022-07-25T21:09:12.893Z,98449.00
2022-07-25T21:11:53.725Z,98448.80
2022-07-25T21:14:30.635Z,98450.60
2022-07-25T21:17:08.050Z,98447.40
2022-07-25T21:19:44.663Z,98451.00
2022-07-25T21:22:21.189Z,98448.80
2022-07-25T21:24:57.846Z,98447.80
2022-07-25T21:27:34.557Z,98448.40
2022-07-25T21:30:14.722Z,98450.60
2022-07-25T21:32:51.115Z,98446.20
2022-07-25T21:35:28.129Z,98447.80
2022-07-25T21:38:05.038Z,98441.60
2022-07-25T21:40:42.503Z,98445.00
2022-07-25T21:43:19.831Z,98446.60
2022-07-25T21:45:56.706Z,98444.60
2022-07-25T21:48:51.355Z,98446.20
2022-07-25T21:51:40.305Z,98445.40
2022-07-25T21:54:17.839Z,98446.20
2022-07-25T21:56:54.361Z,98445.00
2022-07-25T21:59:31.038Z,98446.60
2022-07-25T22:02:10.840Z,98447.40
2022-07-25T22:04:49.575Z,98444.80
2022-07-25T22:07:26.380Z,98445.40
2022-07-25T22:10:03.234Z,98444.40
2022-07-25T22:12:41.903Z,98452.40
2022-07-25T22:15:18.926Z,98443.80
2022-07-25T22:17:55.614Z,98436.60
2022-07-25T22:20:32.484Z,98430.40
2022-07-25T22:23:08.863Z,98431.20
2022-07-25T22:25:45.231Z,98426.60
2022-07-25T22:28:22.181Z,98423.40
2022-07-25T22:30:58.561Z,98422.00
2022-07-25T22:33:35.103Z,98422.20
2022-07-25T22:36:13.800Z,98419.40
2022-07-25T22:38:50.941Z,98413.40
2022-07-25T22:41:27.863Z,98415.40
2022-07-25T22:44:04.649Z,98418.00
2022-07-25T22:46:41.765Z,98407.20
2022-07-25T22:49:18.030Z,98397.40
2022-07-25T22:51:54.382Z,98393.20
2022-07-25T22:54:30.741Z,98394.00
2022-07-25T22:57:08.023Z,98392.40
2022-07-25T22:59:44.956Z,98384.60
2022-07-25T23:02:21.410Z,98381.20
2022-07-25T23:04:57.757Z,98378.00
2022-07-25T23:07:34.322Z,98375.60
2022-07-25T23:10:13.189Z,98368.40
2022-07-25T23:12:49.491Z,98366.00
2022-07-25T23:15:26.672Z,98363.00
2022-07-25T23:18:05.019Z,98360.80
2022-07-25T23:20:41.463Z,98360.60
2022-07-25T23:23:17.771Z,98356.20
2022-07-25T23:25:54.149Z,98349.20
2022-07-25T23:28:30.692Z,98352.20
2022-07-25T23:31:07.254Z,98350.80
2022-07-25T23:33:43.920Z,98351.20
2022-07-25T23:36:20.287Z,98353.20
2022-07-25T23:38:56.941Z,98344.60
2022-07-25T23:41:33.617Z,98333.60
2022-07-25T23:44:11.990Z,98326.60
2022-07-25T23:46:48.930Z,98332.60
2022-07-25T23:49:25.958Z,98336.00
2022-07-25T23:52:02.266Z,98342.20
2022-07-25T23:54:40.681Z,98347.20
2022-07-25T23:57:17.256Z,98353.00
2022-07-25T23:59:53.686Z,98354.20
